キンシャサ の空港の天気 - METARとTAF

キンシャサ/ヌジリ国際空港 ( FZAA / FIH ) - コンゴ民主共和国 キンシャサ
飛行場実況気象(Metar)
観測時間05/28 10:00 WAT (05/28 09:00 UTC)
風向・風速西 3m/s
視程6000m
天気現象
全天の4割程度の雲 雲底高度 490m
気温25℃
湿度74%
気圧1016hPa
METARFZAA 280900Z 28006KT 6000 SCT016 25/20 Q1016 NOSIG
過去の天気等 Google飛行場航空写真 Wunderground天気予報

過去48時間のMETAR

飛行場予報(TAF)
発表時間: 5/28 06:00 WAT (5/28 05:00 UTC)
予報対象時間: 28日7時 WAT ~ 29日13時 WAT
風向・風速西南西 2m/s
視程6000m
少しの雲 雲底高度 490m
28日7時 WAT ~ 28日10時 WAT に 確率 30% で一時的に
視程4000m
天気現象もや
全天の8割程度の雲 雲底高度 400m
28日11時 WAT ~ 28日13時 WAT に徐々に
風向・風速北北西 5m/s
全天の4割程度の雲 雲底高度 610m
28日20時 WAT ~ 28日23時 WAT に徐々に
風向・風速南南西 2m/s
少しの雲 雲底高度 490m
TAF FZAA 280500Z 2806/2912 24004KT 6000 FEW016
PROB30 TEMPO 2806/2809 4000 BR BKN013
BECMG 2810/2812 34010KT SCT020
BECMG 2819/2822 20004KT FEW016